sensor_id;sensor_type;location;lat;lon;timestamp;P1;durP1;ratioP1;P2;durP2;ratioP2
49472;SDS011;67434;50.956;6.918;2023-02-05T00:04:43;31.25;;;12.10;;
49472;SDS011;67434;50.956;6.918;2023-02-05T00:07:29;25.92;;;11.00;;
49472;SDS011;67434;50.956;6.918;2023-02-05T00:13:01;27.25;;;11.15;;
49472;SDS011;67434;50.956;6.918;2023-02-05T00:15:47;29.58;;;10.88;;
49472;SDS011;67434;50.956;6.918;2023-02-05T00:18:32;26.00;;;12.23;;
49472;SDS011;67434;50.956;6.918;2023-02-05T00:26:50;36.28;;;11.50;;
49472;SDS011;67434;50.956;6.918;2023-02-05T00:32:21;34.70;;;11.82;;
49472;SDS011;67434;50.956;6.918;2023-02-05T00:37:52;29.27;;;10.73;;
49472;SDS011;67434;50.956;6.918;2023-02-05T00:43:23;25.93;;;12.20;;
49472;SDS011;67434;50.956;6.918;2023-02-05T00:46:10;25.30;;;12.13;;
49472;SDS011;67434;50.956;6.918;2023-02-05T00:48:57;29.70;;;13.23;;
49472;SDS011;67434;50.956;6.918;2023-02-05T00:51:42;31.15;;;13.40;;
49472;SDS011;67434;50.956;6.918;2023-02-05T00:54:28;27.38;;;12.23;;
49472;SDS011;67434;50.956;6.918;2023-02-05T00:57:14;29.48;;;12.40;;
49472;SDS011;67434;50.956;6.918;2023-02-05T00:59:59;27.13;;;11.75;;
49472;SDS011;67434;50.956;6.918;2023-02-05T01:02:45;28.25;;;12.30;;
49472;SDS011;67434;50.956;6.918;2023-02-05T01:08:19;29.67;;;12.65;;
49472;SDS011;67434;50.956;6.918;2023-02-05T01:11:06;24.98;;;11.45;;
49472;SDS011;67434;50.956;6.918;2023-02-05T01:13:53;26.55;;;12.30;;
49472;SDS011;67434;50.956;6.918;2023-02-05T01:16:39;29.85;;;12.80;;
49472;SDS011;67434;50.956;6.918;2023-02-05T01:22:10;28.90;;;11.15;;
49472;SDS011;67434;50.956;6.918;2023-02-05T01:25:00;28.13;;;12.15;;
49472;SDS011;67434;50.956;6.918;2023-02-05T01:27:45;21.02;;;10.48;;
49472;SDS011;67434;50.956;6.918;2023-02-05T01:30:31;28.50;;;11.35;;
49472;SDS011;67434;50.956;6.918;2023-02-05T01:33:17;26.80;;;11.20;;
49472;SDS011;67434;50.956;6.918;2023-02-05T01:36:03;37.25;;;12.77;;
49472;SDS011;67434;50.956;6.918;2023-02-05T01:38:49;28.17;;;12.90;;
49472;SDS011;67434;50.956;6.918;2023-02-05T01:44:21;31.80;;;12.07;;
49472;SDS011;67434;50.956;6.918;2023-02-05T01:47:08;32.35;;;12.23;;
49472;SDS011;67434;50.956;6.918;2023-02-05T01:49:54;32.88;;;13.25;;
49472;SDS011;67434;50.956;6.918;2023-02-05T01:52:40;31.85;;;13.50;;
49472;SDS011;67434;50.956;6.918;2023-02-05T01:55:26;27.35;;;11.65;;
49472;SDS011;67434;50.956;6.918;2023-02-05T01:58:13;26.88;;;11.40;;
49472;SDS011;67434;50.956;6.918;2023-02-05T02:00:59;29.90;;;12.85;;
49472;SDS011;67434;50.956;6.918;2023-02-05T02:03:45;29.42;;;13.63;;
49472;SDS011;67434;50.956;6.918;2023-02-05T02:06:34;36.13;;;12.80;;
49472;SDS011;67434;50.956;6.918;2023-02-05T02:09:21;30.40;;;12.15;;
49472;SDS011;67434;50.956;6.918;2023-02-05T02:12:07;28.55;;;11.50;;
49472;SDS011;67434;50.956;6.918;2023-02-05T02:14:55;34.10;;;13.00;;
49472;SDS011;67434;50.956;6.918;2023-02-05T02:17:46;28.83;;;12.00;;
49472;SDS011;67434;50.956;6.918;2023-02-05T02:20:37;32.00;;;13.38;;
49472;SDS011;67434;50.956;6.918;2023-02-05T02:23:36;31.00;;;12.80;;
49472;SDS011;67434;50.956;6.918;2023-02-05T02:29:56;26.55;;;11.88;;
49472;SDS011;67434;50.956;6.918;2023-02-05T02:32:49;29.42;;;12.55;;
49472;SDS011;67434;50.956;6.918;2023-02-05T02:35:53;30.42;;;12.82;;
49472;SDS011;67434;50.956;6.918;2023-02-05T02:41:52;32.60;;;12.10;;
49472;SDS011;67434;50.956;6.918;2023-02-05T02:44:47;35.10;;;12.30;;
49472;SDS011;67434;50.956;6.918;2023-02-05T02:47:39;29.63;;;11.65;;
49472;SDS011;67434;50.956;6.918;2023-02-05T02:50:35;32.22;;;12.20;;
49472;SDS011;67434;50.956;6.918;2023-02-05T02:53:26;31.75;;;12.15;;
49472;SDS011;67434;50.956;6.918;2023-02-05T02:56:17;35.03;;;13.32;;
49472;SDS011;67434;50.956;6.918;2023-02-05T02:59:11;33.13;;;13.25;;
49472;SDS011;67434;50.956;6.918;2023-02-05T03:02:01;33.83;;;12.70;;
49472;SDS011;67434;50.956;6.918;2023-02-05T03:05:12;30.67;;;12.43;;
49472;SDS011;67434;50.956;6.918;2023-02-05T03:08:00;39.38;;;13.95;;
49472;SDS011;67434;50.956;6.918;2023-02-05T03:11:01;40.22;;;12.90;;
49472;SDS011;67434;50.956;6.918;2023-02-05T03:13:53;33.40;;;13.07;;
49472;SDS011;67434;50.956;6.918;2023-02-05T03:16:40;37.65;;;12.68;;
49472;SDS011;67434;50.956;6.918;2023-02-05T03:19:26;27.92;;;12.70;;
49472;SDS011;67434;50.956;6.918;2023-02-05T03:22:13;31.95;;;11.82;;
49472;SDS011;67434;50.956;6.918;2023-02-05T03:25:00;31.88;;;11.82;;
49472;SDS011;67434;50.956;6.918;2023-02-05T03:27:46;30.65;;;11.73;;
49472;SDS011;67434;50.956;6.918;2023-02-05T03:36:43;32.97;;;12.50;;
49472;SDS011;67434;50.956;6.918;2023-02-05T03:40:03;26.85;;;10.90;;
49472;SDS011;67434;50.956;6.918;2023-02-05T03:45:59;30.42;;;10.40;;
49472;SDS011;67434;50.956;6.918;2023-02-05T03:52:26;30.45;;;11.50;;
49472;SDS011;67434;50.956;6.918;2023-02-05T03:58:13;41.22;;;12.98;;
49472;SDS011;67434;50.956;6.918;2023-02-05T04:01:03;27.58;;;10.65;;
49472;SDS011;67434;50.956;6.918;2023-02-05T04:03:50;33.50;;;11.48;;
49472;SDS011;67434;50.956;6.918;2023-02-05T04:06:35;28.40;;;10.60;;
49472;SDS011;67434;50.956;6.918;2023-02-05T04:09:21;29.08;;;11.30;;
49472;SDS011;67434;50.956;6.918;2023-02-05T04:12:07;29.30;;;11.05;;
49472;SDS011;67434;50.956;6.918;2023-02-05T04:14:54;34.28;;;11.50;;
49472;SDS011;67434;50.956;6.918;2023-02-05T04:17:40;26.65;;;10.00;;
49472;SDS011;67434;50.956;6.918;2023-02-05T04:23:11;28.58;;;10.57;;
49472;SDS011;67434;50.956;6.918;2023-02-05T04:25:56;31.90;;;11.65;;
49472;SDS011;67434;50.956;6.918;2023-02-05T04:28:42;33.15;;;11.82;;
49472;SDS011;67434;50.956;6.918;2023-02-05T04:31:28;35.15;;;11.38;;
49472;SDS011;67434;50.956;6.918;2023-02-05T04:36:59;21.73;;;10.38;;
49472;SDS011;67434;50.956;6.918;2023-02-05T04:42:31;29.42;;;11.23;;
49472;SDS011;67434;50.956;6.918;2023-02-05T04:48:02;31.23;;;9.80;;
49472;SDS011;67434;50.956;6.918;2023-02-05T04:50:50;26.25;;;11.02;;
49472;SDS011;67434;50.956;6.918;2023-02-05T04:53:36;36.08;;;10.80;;
49472;SDS011;67434;50.956;6.918;2023-02-05T04:56:23;33.58;;;10.73;;
49472;SDS011;67434;50.956;6.918;2023-02-05T04:59:08;31.85;;;12.52;;
49472;SDS011;67434;50.956;6.918;2023-02-05T05:01:54;25.52;;;11.50;;
49472;SDS011;67434;50.956;6.918;2023-02-05T05:04:40;32.30;;;12.02;;
49472;SDS011;67434;50.956;6.918;2023-02-05T05:07:28;26.85;;;12.00;;
49472;SDS011;67434;50.956;6.918;2023-02-05T05:10:14;26.02;;;11.48;;
49472;SDS011;67434;50.956;6.918;2023-02-05T05:13:00;37.92;;;12.15;;
49472;SDS011;67434;50.956;6.918;2023-02-05T05:18:37;29.25;;;11.73;;
49472;SDS011;67434;50.956;6.918;2023-02-05T05:21:23;32.17;;;11.45;;
49472;SDS011;67434;50.956;6.918;2023-02-05T05:24:09;32.53;;;13.05;;
49472;SDS011;67434;50.956;6.918;2023-02-05T05:26:55;28.55;;;12.45;;
49472;SDS011;67434;50.956;6.918;2023-02-05T05:32:26;36.60;;;12.80;;
49472;SDS011;67434;50.956;6.918;2023-02-05T05:37:57;40.83;;;13.77;;
49472;SDS011;67434;50.956;6.918;2023-02-05T05:40:43;39.42;;;14.40;;
49472;SDS011;67434;50.956;6.918;2023-02-05T05:43:48;31.55;;;12.15;;
49472;SDS011;67434;50.956;6.918;2023-02-05T05:46:35;42.97;;;14.57;;
49472;SDS011;67434;50.956;6.918;2023-02-05T05:52:06;41.00;;;15.07;;
49472;SDS011;67434;50.956;6.918;2023-02-05T05:57:37;39.27;;;14.53;;
49472;SDS011;67434;50.956;6.918;2023-02-05T06:03:09;27.73;;;10.70;;
49472;SDS011;67434;50.956;6.918;2023-02-05T06:05:55;38.92;;;15.05;;
49472;SDS011;67434;50.956;6.918;2023-02-05T06:11:26;39.53;;;15.63;;
49472;SDS011;67434;50.956;6.918;2023-02-05T06:16:57;38.73;;;14.53;;
49472;SDS011;67434;50.956;6.918;2023-02-05T06:22:28;38.70;;;16.23;;
49472;SDS011;67434;50.956;6.918;2023-02-05T06:28:00;41.40;;;15.73;;
49472;SDS011;67434;50.956;6.918;2023-02-05T06:30:45;41.88;;;15.20;;
49472;SDS011;67434;50.956;6.918;2023-02-05T06:36:17;39.73;;;14.93;;
49472;SDS011;67434;50.956;6.918;2023-02-05T06:39:02;41.72;;;16.45;;
49472;SDS011;67434;50.956;6.918;2023-02-05T06:41:48;43.00;;;17.30;;
49472;SDS011;67434;50.956;6.918;2023-02-05T06:47:19;40.90;;;17.05;;
49472;SDS011;67434;50.956;6.918;2023-02-05T06:50:05;41.33;;;16.65;;
49472;SDS011;67434;50.956;6.918;2023-02-05T06:52:51;36.88;;;15.35;;
49472;SDS011;67434;50.956;6.918;2023-02-05T06:55:37;43.33;;;16.33;;
49472;SDS011;67434;50.956;6.918;2023-02-05T06:58:23;41.63;;;16.60;;
49472;SDS011;67434;50.956;6.918;2023-02-05T07:01:09;38.20;;;16.20;;
49472;SDS011;67434;50.956;6.918;2023-02-05T07:06:40;41.42;;;15.43;;
49472;SDS011;67434;50.956;6.918;2023-02-05T07:09:26;39.28;;;17.30;;
49472;SDS011;67434;50.956;6.918;2023-02-05T07:12:11;39.53;;;16.35;;
49472;SDS011;67434;50.956;6.918;2023-02-05T07:14:57;39.28;;;16.63;;
49472;SDS011;67434;50.956;6.918;2023-02-05T07:17:43;39.90;;;16.77;;
49472;SDS011;67434;50.956;6.918;2023-02-05T07:23:14;35.00;;;13.93;;
49472;SDS011;67434;50.956;6.918;2023-02-05T07:26:10;38.83;;;17.20;;
49472;SDS011;67434;50.956;6.918;2023-02-05T07:28:57;39.53;;;16.55;;
49472;SDS011;67434;50.956;6.918;2023-02-05T07:34:28;47.27;;;17.67;;
49472;SDS011;67434;50.956;6.918;2023-02-05T07:40:00;33.33;;;16.07;;
49472;SDS011;67434;50.956;6.918;2023-02-05T07:45:31;41.57;;;17.30;;
49472;SDS011;67434;50.956;6.918;2023-02-05T07:48:17;34.92;;;16.20;;
49472;SDS011;67434;50.956;6.918;2023-02-05T07:51:02;32.97;;;16.15;;
49472;SDS011;67434;50.956;6.918;2023-02-05T07:53:48;33.45;;;15.45;;
49472;SDS011;67434;50.956;6.918;2023-02-05T07:56:35;33.75;;;15.25;;
49472;SDS011;67434;50.956;6.918;2023-02-05T07:59:20;40.47;;;15.73;;
49472;SDS011;67434;50.956;6.918;2023-02-05T08:02:07;33.80;;;15.50;;
49472;SDS011;67434;50.956;6.918;2023-02-05T08:04:54;30.70;;;14.63;;
49472;SDS011;67434;50.956;6.918;2023-02-05T08:07:40;31.85;;;14.13;;
49472;SDS011;67434;50.956;6.918;2023-02-05T08:10:25;33.85;;;15.63;;
49472;SDS011;67434;50.956;6.918;2023-02-05T08:13:11;39.97;;;16.70;;
49472;SDS011;67434;50.956;6.918;2023-02-05T08:18:45;37.50;;;16.33;;
49472;SDS011;67434;50.956;6.918;2023-02-05T08:21:33;36.03;;;17.08;;
49472;SDS011;67434;50.956;6.918;2023-02-05T08:27:04;27.93;;;12.90;;
49472;SDS011;67434;50.956;6.918;2023-02-05T08:32:35;26.08;;;13.55;;
49472;SDS011;67434;50.956;6.918;2023-02-05T08:35:21;29.77;;;14.40;;
49472;SDS011;67434;50.956;6.918;2023-02-05T08:40:52;30.63;;;14.77;;
49472;SDS011;67434;50.956;6.918;2023-02-05T08:46:28;30.95;;;14.10;;
49472;SDS011;67434;50.956;6.918;2023-02-05T08:52:01;33.22;;;15.18;;
49472;SDS011;67434;50.956;6.918;2023-02-05T08:54:47;29.40;;;13.35;;
49472;SDS011;67434;50.956;6.918;2023-02-05T08:57:33;24.83;;;14.07;;
49472;SDS011;67434;50.956;6.918;2023-02-05T09:00:19;26.10;;;11.82;;
49472;SDS011;67434;50.956;6.918;2023-02-05T09:03:05;21.23;;;11.07;;
49472;SDS011;67434;50.956;6.918;2023-02-05T09:08:36;17.90;;;9.20;;
49472;SDS011;67434;50.956;6.918;2023-02-05T09:11:22;16.77;;;7.88;;
49472;SDS011;67434;50.956;6.918;2023-02-05T09:14:11;11.70;;;7.28;;
49472;SDS011;67434;50.956;6.918;2023-02-05T09:16:57;10.43;;;5.78;;
49472;SDS011;67434;50.956;6.918;2023-02-05T09:22:28;5.07;;;3.30;;
49472;SDS011;67434;50.956;6.918;2023-02-05T09:27:59;6.30;;;2.37;;
49472;SDS011;67434;50.956;6.918;2023-02-05T09:30:45;3.90;;;2.25;;
49472;SDS011;67434;50.956;6.918;2023-02-05T09:33:31;3.38;;;2.03;;
49472;SDS011;67434;50.956;6.918;2023-02-05T09:39:03;3.13;;;1.80;;
49472;SDS011;67434;50.956;6.918;2023-02-05T09:44:51;6.93;;;2.05;;
49472;SDS011;67434;50.956;6.918;2023-02-05T09:50:40;4.05;;;1.98;;
49472;SDS011;67434;50.956;6.918;2023-02-05T09:53:27;7.95;;;1.95;;
49472;SDS011;67434;50.956;6.918;2023-02-05T09:56:05;4.55;;;1.67;;
49472;SDS011;67434;50.956;6.918;2023-02-05T09:58:33;3.50;;;1.60;;
49472;SDS011;67434;50.956;6.918;2023-02-05T10:01:06;3.42;;;1.30;;
49472;SDS011;67434;50.956;6.918;2023-02-05T10:06:30;3.65;;;1.33;;
49472;SDS011;67434;50.956;6.918;2023-02-05T10:12:52;8.88;;;1.75;;
49472;SDS011;67434;50.956;6.918;2023-02-05T10:15:05;3.60;;;1.60;;
49472;SDS011;67434;50.956;6.918;2023-02-05T10:23:15;3.97;;;1.60;;
49472;SDS011;67434;50.956;6.918;2023-02-05T10:28:23;5.90;;;1.15;;
49472;SDS011;67434;50.956;6.918;2023-02-05T10:33:51;7.93;;;0.77;;
49472;SDS011;67434;50.956;6.918;2023-02-05T10:38:47;3.50;;;0.63;;
49472;SDS011;67434;50.956;6.918;2023-02-05T10:41:23;2.33;;;0.70;;
49472;SDS011;67434;50.956;6.918;2023-02-05T10:44:10;3.83;;;0.60;;
49472;SDS011;67434;50.956;6.918;2023-02-05T10:46:42;5.45;;;0.60;;
49472;SDS011;67434;50.956;6.918;2023-02-05T10:52:02;9.43;;;1.13;;
49472;SDS011;67434;50.956;6.918;2023-02-05T10:54:29;5.78;;;0.70;;
49472;SDS011;67434;50.956;6.918;2023-02-05T10:56:57;5.15;;;0.63;;
49472;SDS011;67434;50.956;6.918;2023-02-05T10:59:25;6.82;;;1.05;;
49472;SDS011;67434;50.956;6.918;2023-02-05T11:01:53;1.70;;;0.45;;
49472;SDS011;67434;50.956;6.918;2023-02-05T11:07:01;2.35;;;0.68;;
49472;SDS011;67434;50.956;6.918;2023-02-05T11:09:31;4.00;;;1.15;;
49472;SDS011;67434;50.956;6.918;2023-02-05T11:12:02;11.93;;;1.10;;
49472;SDS011;67434;50.956;6.918;2023-02-05T11:14:36;4.78;;;0.88;;
49472;SDS011;67434;50.956;6.918;2023-02-05T11:17:07;5.78;;;1.02;;
49472;SDS011;67434;50.956;6.918;2023-02-05T11:19:50;6.63;;;1.02;;
49472;SDS011;67434;50.956;6.918;2023-02-05T11:22:29;7.68;;;0.88;;
49472;SDS011;67434;50.956;6.918;2023-02-05T11:25:04;5.25;;;1.10;;
49472;SDS011;67434;50.956;6.918;2023-02-05T11:27:41;7.70;;;0.80;;
49472;SDS011;67434;50.956;6.918;2023-02-05T11:30:27;7.32;;;1.65;;
49472;SDS011;67434;50.956;6.918;2023-02-05T11:33:15;4.32;;;0.77;;
49472;SDS011;67434;50.956;6.918;2023-02-05T11:35:59;8.57;;;1.05;;
49472;SDS011;67434;50.956;6.918;2023-02-05T11:41:08;5.60;;;0.68;;
49472;SDS011;67434;50.956;6.918;2023-02-05T11:43:44;17.77;;;2.15;;
49472;SDS011;67434;50.956;6.918;2023-02-05T11:46:18;13.23;;;1.17;;
49472;SDS011;67434;50.956;6.918;2023-02-05T11:48:58;11.43;;;2.03;;
49472;SDS011;67434;50.956;6.918;2023-02-05T11:54:22;5.32;;;0.90;;
49472;SDS011;67434;50.956;6.918;2023-02-05T11:57:01;7.07;;;1.38;;
49472;SDS011;67434;50.956;6.918;2023-02-05T11:59:41;9.18;;;0.90;;
49472;SDS011;67434;50.956;6.918;2023-02-05T12:02:40;17.90;;;1.38;;
49472;SDS011;67434;50.956;6.918;2023-02-05T12:07:49;7.78;;;1.17;;
49472;SDS011;67434;50.956;6.918;2023-02-05T12:13:23;7.25;;;1.48;;
49472;SDS011;67434;50.956;6.918;2023-02-05T12:18:46;11.18;;;1.90;;
49472;SDS011;67434;50.956;6.918;2023-02-05T12:21:27;7.00;;;1.38;;
49472;SDS011;67434;50.956;6.918;2023-02-05T12:24:25;16.48;;;3.13;;
49472;SDS011;67434;50.956;6.918;2023-02-05T12:38:27;15.73;;;2.83;;
49472;SDS011;67434;50.956;6.918;2023-02-05T12:44:25;10.55;;;3.25;;
49472;SDS011;67434;50.956;6.918;2023-02-05T12:47:15;12.52;;;3.38;;
49472;SDS011;67434;50.956;6.918;2023-02-05T12:50:01;11.43;;;3.50;;
49472;SDS011;67434;50.956;6.918;2023-02-05T12:58:18;6.72;;;2.55;;
49472;SDS011;67434;50.956;6.918;2023-02-05T13:00:53;6.53;;;2.90;;
49472;SDS011;67434;50.956;6.918;2023-02-05T13:03:26;9.85;;;3.53;;
49472;SDS011;67434;50.956;6.918;2023-02-05T13:05:55;11.25;;;3.38;;
49472;SDS011;67434;50.956;6.918;2023-02-05T13:11:15;10.90;;;3.00;;
49472;SDS011;67434;50.956;6.918;2023-02-05T13:13:55;7.43;;;3.58;;
49472;SDS011;67434;50.956;6.918;2023-02-05T13:16:29;8.90;;;3.42;;
49472;SDS011;67434;50.956;6.918;2023-02-05T13:19:10;10.52;;;3.47;;
49472;SDS011;67434;50.956;6.918;2023-02-05T13:27:15;11.38;;;2.65;;
49472;SDS011;67434;50.956;6.918;2023-02-05T13:30:03;5.18;;;1.85;;
49472;SDS011;67434;50.956;6.918;2023-02-05T13:32:34;4.38;;;2.08;;
49472;SDS011;67434;50.956;6.918;2023-02-05T13:35:01;3.85;;;1.40;;
49472;SDS011;67434;50.956;6.918;2023-02-05T13:37:38;6.65;;;1.23;;
49472;SDS011;67434;50.956;6.918;2023-02-05T13:40:25;3.53;;;1.23;;
49472;SDS011;67434;50.956;6.918;2023-02-05T13:48:55;6.63;;;1.27;;
49472;SDS011;67434;50.956;6.918;2023-02-05T13:54:46;5.20;;;1.60;;
49472;SDS011;67434;50.956;6.918;2023-02-05T14:00:34;3.75;;;2.30;;
49472;SDS011;67434;50.956;6.918;2023-02-05T14:03:01;8.00;;;2.95;;
49472;SDS011;67434;50.956;6.918;2023-02-05T14:05:36;7.13;;;3.50;;
49472;SDS011;67434;50.956;6.918;2023-02-05T14:08:04;3.15;;;2.65;;
49472;SDS011;67434;50.956;6.918;2023-02-05T14:10:41;10.07;;;3.33;;
49472;SDS011;67434;50.956;6.918;2023-02-05T14:13:21;5.78;;;3.20;;
49472;SDS011;67434;50.956;6.918;2023-02-05T14:15:50;8.20;;;3.05;;
49472;SDS011;67434;50.956;6.918;2023-02-05T14:21:26;7.28;;;2.78;;
49472;SDS011;67434;50.956;6.918;2023-02-05T14:26:45;10.93;;;3.03;;
49472;SDS011;67434;50.956;6.918;2023-02-05T14:34:59;8.15;;;3.45;;
49472;SDS011;67434;50.956;6.918;2023-02-05T14:37:29;8.52;;;2.75;;
49472;SDS011;67434;50.956;6.918;2023-02-05T14:39:55;8.65;;;3.15;;
49472;SDS011;67434;50.956;6.918;2023-02-05T14:42:22;8.40;;;2.97;;
49472;SDS011;67434;50.956;6.918;2023-02-05T14:44:54;4.75;;;2.50;;
49472;SDS011;67434;50.956;6.918;2023-02-05T14:49:57;8.23;;;1.95;;
49472;SDS011;67434;50.956;6.918;2023-02-05T14:52:28;6.50;;;2.33;;
49472;SDS011;67434;50.956;6.918;2023-02-05T14:57:48;6.68;;;1.77;;
49472;SDS011;67434;50.956;6.918;2023-02-05T15:08:20;2.45;;;1.50;;
49472;SDS011;67434;50.956;6.918;2023-02-05T15:11:04;7.05;;;1.70;;
49472;SDS011;67434;50.956;6.918;2023-02-05T15:19:33;5.75;;;1.98;;
49472;SDS011;67434;50.956;6.918;2023-02-05T15:22:05;4.15;;;2.00;;
49472;SDS011;67434;50.956;6.918;2023-02-05T15:24:42;7.65;;;1.55;;
49472;SDS011;67434;50.956;6.918;2023-02-05T15:27:15;3.05;;;1.90;;
49472;SDS011;67434;50.956;6.918;2023-02-05T15:29:49;4.03;;;1.20;;
49472;SDS011;67434;50.956;6.918;2023-02-05T15:32:31;3.10;;;1.63;;
49472;SDS011;67434;50.956;6.918;2023-02-05T15:35:02;5.88;;;1.67;;
49472;SDS011;67434;50.956;6.918;2023-02-05T15:37:31;6.90;;;2.20;;
49472;SDS011;67434;50.956;6.918;2023-02-05T15:40:20;4.63;;;1.40;;
49472;SDS011;67434;50.956;6.918;2023-02-05T15:42:52;5.32;;;1.35;;
49472;SDS011;67434;50.956;6.918;2023-02-05T15:45:25;10.98;;;1.55;;
49472;SDS011;67434;50.956;6.918;2023-02-05T15:48:09;5.30;;;1.40;;
49472;SDS011;67434;50.956;6.918;2023-02-05T15:53:30;4.40;;;1.70;;
49472;SDS011;67434;50.956;6.918;2023-02-05T15:56:06;7.22;;;1.27;;
49472;SDS011;67434;50.956;6.918;2023-02-05T15:58:47;5.78;;;1.45;;
49472;SDS011;67434;50.956;6.918;2023-02-05T16:01:24;8.90;;;1.77;;
49472;SDS011;67434;50.956;6.918;2023-02-05T16:03:53;6.53;;;0.95;;
49472;SDS011;67434;50.956;6.918;2023-02-05T16:06:19;7.05;;;1.27;;
49472;SDS011;67434;50.956;6.918;2023-02-05T16:08:46;5.13;;;1.00;;
49472;SDS011;67434;50.956;6.918;2023-02-05T16:11:23;10.32;;;1.50;;
49472;SDS011;67434;50.956;6.918;2023-02-05T16:16:44;8.23;;;1.40;;
49472;SDS011;67434;50.956;6.918;2023-02-05T16:25:24;6.25;;;1.40;;
49472;SDS011;67434;50.956;6.918;2023-02-05T16:28:23;7.55;;;1.67;;
49472;SDS011;67434;50.956;6.918;2023-02-05T16:31:00;9.90;;;1.42;;
49472;SDS011;67434;50.956;6.918;2023-02-05T16:33:29;7.72;;;1.17;;
49472;SDS011;67434;50.956;6.918;2023-02-05T16:35:58;12.00;;;2.80;;
49472;SDS011;67434;50.956;6.918;2023-02-05T16:38:25;7.40;;;1.58;;
49472;SDS011;67434;50.956;6.918;2023-02-05T16:41:00;4.97;;;1.10;;
49472;SDS011;67434;50.956;6.918;2023-02-05T16:43:43;12.30;;;1.30;;
49472;SDS011;67434;50.956;6.918;2023-02-05T16:48:41;9.45;;;1.80;;
49472;SDS011;67434;50.956;6.918;2023-02-05T16:53:58;7.22;;;1.35;;
49472;SDS011;67434;50.956;6.918;2023-02-05T16:56:28;13.80;;;2.53;;
49472;SDS011;67434;50.956;6.918;2023-02-05T16:58:56;7.10;;;1.48;;
49472;SDS011;67434;50.956;6.918;2023-02-05T17:01:28;12.43;;;2.85;;
49472;SDS011;67434;50.956;6.918;2023-02-05T17:06:50;11.35;;;2.47;;
49472;SDS011;67434;50.956;6.918;2023-02-05T17:09:33;8.32;;;1.83;;
49472;SDS011;67434;50.956;6.918;2023-02-05T17:14:54;7.30;;;2.00;;
49472;SDS011;67434;50.956;6.918;2023-02-05T17:17:25;12.10;;;2.38;;
49472;SDS011;67434;50.956;6.918;2023-02-05T17:22:33;8.98;;;1.52;;
49472;SDS011;67434;50.956;6.918;2023-02-05T17:24:59;9.82;;;2.60;;
49472;SDS011;67434;50.956;6.918;2023-02-05T17:29:55;14.20;;;2.13;;
49472;SDS011;67434;50.956;6.918;2023-02-05T17:32:22;10.02;;;1.92;;
49472;SDS011;67434;50.956;6.918;2023-02-05T17:34:48;12.00;;;3.03;;
49472;SDS011;67434;50.956;6.918;2023-02-05T17:37:13;7.88;;;2.03;;
49472;SDS011;67434;50.956;6.918;2023-02-05T17:39:39;16.30;;;3.20;;
49472;SDS011;67434;50.956;6.918;2023-02-05T17:42:05;11.45;;;2.22;;
49472;SDS011;67434;50.956;6.918;2023-02-05T17:44:34;11.18;;;1.88;;
49472;SDS011;67434;50.956;6.918;2023-02-05T17:47:00;10.00;;;2.17;;
49472;SDS011;67434;50.956;6.918;2023-02-05T17:49:28;12.98;;;2.03;;
49472;SDS011;67434;50.956;6.918;2023-02-05T17:51:53;19.60;;;2.45;;
49472;SDS011;67434;50.956;6.918;2023-02-05T17:54:20;18.45;;;2.83;;
49472;SDS011;67434;50.956;6.918;2023-02-05T17:56:47;17.25;;;1.92;;
49472;SDS011;67434;50.956;6.918;2023-02-05T17:59:18;10.30;;;1.65;;
49472;SDS011;67434;50.956;6.918;2023-02-05T18:01:45;8.45;;;1.50;;
49472;SDS011;67434;50.956;6.918;2023-02-05T18:04:12;7.22;;;2.17;;
49472;SDS011;67434;50.956;6.918;2023-02-05T18:06:38;11.25;;;2.08;;
49472;SDS011;67434;50.956;6.918;2023-02-05T18:09:05;12.38;;;1.85;;
49472;SDS011;67434;50.956;6.918;2023-02-05T18:11:31;9.45;;;1.85;;
49472;SDS011;67434;50.956;6.918;2023-02-05T18:13:57;17.63;;;2.50;;
49472;SDS011;67434;50.956;6.918;2023-02-05T18:16:23;9.93;;;2.25;;
49472;SDS011;67434;50.956;6.918;2023-02-05T18:18:48;16.30;;;1.48;;
49472;SDS011;67434;50.956;6.918;2023-02-05T18:21:14;11.20;;;2.58;;
49472;SDS011;67434;50.956;6.918;2023-02-05T18:23:39;15.23;;;3.03;;
49472;SDS011;67434;50.956;6.918;2023-02-05T18:26:05;12.02;;;2.42;;
49472;SDS011;67434;50.956;6.918;2023-02-05T18:28:32;11.50;;;2.03;;
49472;SDS011;67434;50.956;6.918;2023-02-05T18:31:00;11.18;;;2.65;;
49472;SDS011;67434;50.956;6.918;2023-02-05T18:33:26;11.77;;;2.40;;
49472;SDS011;67434;50.956;6.918;2023-02-05T18:35:52;8.73;;;1.52;;
49472;SDS011;67434;50.956;6.918;2023-02-05T18:38:17;20.77;;;2.67;;
49472;SDS011;67434;50.956;6.918;2023-02-05T18:40:45;15.18;;;2.28;;
49472;SDS011;67434;50.956;6.918;2023-02-05T18:43:13;11.93;;;2.13;;
49472;SDS011;67434;50.956;6.918;2023-02-05T18:45:38;13.15;;;2.17;;
49472;SDS011;67434;50.956;6.918;2023-02-05T18:48:04;10.70;;;2.00;;
49472;SDS011;67434;50.956;6.918;2023-02-05T18:50:29;15.77;;;2.67;;
49472;SDS011;67434;50.956;6.918;2023-02-05T18:52:57;16.38;;;2.85;;
49472;SDS011;67434;50.956;6.918;2023-02-05T18:55:23;17.67;;;2.17;;
49472;SDS011;67434;50.956;6.918;2023-02-05T18:57:51;11.07;;;1.77;;
49472;SDS011;67434;50.956;6.918;2023-02-05T19:00:16;20.00;;;2.00;;
49472;SDS011;67434;50.956;6.918;2023-02-05T19:02:42;10.70;;;3.17;;
49472;SDS011;67434;50.956;6.918;2023-02-05T19:05:08;17.23;;;3.22;;
49472;SDS011;67434;50.956;6.918;2023-02-05T19:07:35;15.88;;;2.22;;
49472;SDS011;67434;50.956;6.918;2023-02-05T19:10:01;12.32;;;1.80;;
49472;SDS011;67434;50.956;6.918;2023-02-05T19:12:27;20.75;;;1.80;;
49472;SDS011;67434;50.956;6.918;2023-02-05T19:14:53;18.70;;;2.55;;
49472;SDS011;67434;50.956;6.918;2023-02-05T19:17:18;13.30;;;2.28;;
49472;SDS011;67434;50.956;6.918;2023-02-05T19:19:44;12.77;;;1.75;;
49472;SDS011;67434;50.956;6.918;2023-02-05T19:22:09;21.92;;;2.30;;
49472;SDS011;67434;50.956;6.918;2023-02-05T19:24:35;17.52;;;2.42;;
49472;SDS011;67434;50.956;6.918;2023-02-05T19:27:00;9.75;;;2.47;;
49472;SDS011;67434;50.956;6.918;2023-02-05T19:29:26;13.35;;;2.33;;
49472;SDS011;67434;50.956;6.918;2023-02-05T19:31:51;19.02;;;2.63;;
49472;SDS011;67434;50.956;6.918;2023-02-05T19:34:21;10.98;;;1.80;;
49472;SDS011;67434;50.956;6.918;2023-02-05T19:36:47;11.10;;;1.83;;
49472;SDS011;67434;50.956;6.918;2023-02-05T19:39:13;19.10;;;2.60;;
49472;SDS011;67434;50.956;6.918;2023-02-05T19:41:39;14.98;;;2.72;;
49472;SDS011;67434;50.956;6.918;2023-02-05T19:44:08;16.20;;;2.45;;
49472;SDS011;67434;50.956;6.918;2023-02-05T19:46:35;12.05;;;1.80;;
49472;SDS011;67434;50.956;6.918;2023-02-05T19:49:04;10.18;;;2.13;;
49472;SDS011;67434;50.956;6.918;2023-02-05T19:51:31;13.60;;;2.67;;
49472;SDS011;67434;50.956;6.918;2023-02-05T19:53:57;20.17;;;2.85;;
49472;SDS011;67434;50.956;6.918;2023-02-05T19:56:24;17.88;;;3.00;;
49472;SDS011;67434;50.956;6.918;2023-02-05T19:58:51;23.42;;;3.00;;
49472;SDS011;67434;50.956;6.918;2023-02-05T20:01:28;15.30;;;2.33;;
49472;SDS011;67434;50.956;6.918;2023-02-05T20:03:56;12.77;;;2.80;;
49472;SDS011;67434;50.956;6.918;2023-02-05T20:06:25;20.50;;;2.10;;
49472;SDS011;67434;50.956;6.918;2023-02-05T20:08:53;11.68;;;2.03;;
49472;SDS011;67434;50.956;6.918;2023-02-05T20:11:18;8.70;;;2.50;;
49472;SDS011;67434;50.956;6.918;2023-02-05T20:13:44;20.63;;;3.10;;
49472;SDS011;67434;50.956;6.918;2023-02-05T20:16:15;18.23;;;2.85;;
49472;SDS011;67434;50.956;6.918;2023-02-05T20:18:51;11.52;;;2.55;;
49472;SDS011;67434;50.956;6.918;2023-02-05T20:21:18;22.42;;;2.60;;
49472;SDS011;67434;50.956;6.918;2023-02-05T20:23:44;23.23;;;2.33;;